createdAt,value
2023-01-30T00:01:18.378Z,-3.70
2023-01-30T00:03:46.836Z,-3.68
2023-01-30T00:06:15.423Z,-3.99
2023-01-30T00:08:43.777Z,-3.72
2023-01-30T00:11:14.506Z,-3.84
2023-01-30T00:13:44.985Z,-3.78
2023-01-30T00:16:13.521Z,-3.92
2023-01-30T00:18:42.900Z,-3.82
2023-01-30T00:21:14.422Z,-3.92
2023-01-30T00:23:43.127Z,-3.76
2023-01-30T00:26:12.288Z,-4.39
2023-01-30T00:28:41.455Z,-3.68
2023-01-30T00:31:11.304Z,-3.70
2023-01-30T00:33:40.260Z,-3.63
2023-01-30T00:36:10.412Z,-3.50
2023-01-30T00:38:39.080Z,-3.58
2023-01-30T00:41:10.670Z,-3.59
2023-01-30T00:43:56.564Z,-3.48
2023-01-30T00:46:48.938Z,-3.85
2023-01-30T00:49:17.272Z,-3.33
2023-01-30T00:51:45.706Z,-3.33
2023-01-30T00:54:14.745Z,-3.31
2023-01-30T00:56:43.368Z,-3.25
2023-01-30T00:59:11.615Z,-3.21
2023-01-30T01:01:41.460Z,-3.12
2023-01-30T01:04:19.899Z,-3.09
2023-01-30T01:06:48.157Z,-2.95
2023-01-30T01:09:16.427Z,-2.96
2023-01-30T01:11:45.007Z,-2.93
2023-01-30T01:14:13.230Z,-3.00
2023-01-30T01:16:44.087Z,-2.92
2023-01-30T01:19:12.704Z,-3.07
2023-01-30T01:21:42.110Z,-2.76
2023-01-30T01:24:15.335Z,-2.84
2023-01-30T01:26:44.092Z,-2.93
2023-01-30T01:29:14.597Z,-2.77
2023-01-30T01:31:45.228Z,-3.51
2023-01-30T01:34:13.633Z,-2.92
2023-01-30T01:36:54.366Z,-3.90
2023-01-30T01:39:23.843Z,-2.68
2023-01-30T01:41:51.313Z,-2.80
2023-01-30T01:44:19.718Z,-2.77
2023-01-30T01:46:53.282Z,-2.70
2023-01-30T01:49:26.535Z,-2.68
2023-01-30T01:52:00.495Z,-2.74
2023-01-30T01:54:36.164Z,-2.86
2023-01-30T01:57:11.943Z,-2.98
2023-01-30T01:59:45.945Z,-2.78
2023-01-30T02:02:19.720Z,-3.44
2023-01-30T02:05:03.636Z,-2.83
2023-01-30T02:07:38.969Z,-2.72
2023-01-30T02:10:10.310Z,-3.00
2023-01-30T02:12:40.379Z,-2.84
2023-01-30T02:15:11.485Z,-2.84
2023-01-30T02:17:42.270Z,-2.78
2023-01-30T02:20:22.889Z,-2.83
2023-01-30T02:23:32.838Z,-2.81
2023-01-30T02:26:46.412Z,-2.77
2023-01-30T02:29:43.784Z,-2.69
2023-01-30T02:32:21.715Z,-2.79
2023-01-30T02:35:08.839Z,-2.79
2023-01-30T02:37:54.292Z,-2.85
2023-01-30T02:40:37.995Z,-2.90
2023-01-30T02:43:17.115Z,-3.84
2023-01-30T02:45:55.549Z,-2.99
2023-01-30T02:48:29.634Z,-2.84
2023-01-30T02:51:03.790Z,-2.87
2023-01-30T02:53:34.073Z,-2.77
2023-01-30T02:56:03.165Z,-2.77
2023-01-30T02:58:37.244Z,-2.78
2023-01-30T03:01:25.983Z,-2.73
2023-01-30T03:04:28.751Z,-2.78
2023-01-30T03:07:20.088Z,-2.72
2023-01-30T03:09:59.840Z,-2.59
2023-01-30T03:12:50.471Z,-2.68
2023-01-30T03:15:27.734Z,-2.66
2023-01-30T03:17:56.511Z,-2.71
2023-01-30T03:20:26.568Z,-2.87
2023-01-30T03:22:55.886Z,-2.72
2023-01-30T03:25:27.745Z,-2.77
2023-01-30T03:27:57.741Z,-2.72
2023-01-30T03:30:27.650Z,-2.79
2023-01-30T03:33:04.742Z,-2.80
2023-01-30T03:35:34.471Z,-2.89
2023-01-30T03:38:03.693Z,-3.15
2023-01-30T03:40:32.007Z,-3.06
2023-01-30T03:43:00.766Z,-2.71
2023-01-30T03:45:29.515Z,-2.84
2023-01-30T03:47:57.768Z,-2.86
2023-01-30T03:50:26.026Z,-2.95
2023-01-30T03:52:55.637Z,-2.90
2023-01-30T03:55:24.312Z,-2.87
2023-01-30T03:57:57.078Z,-2.78
2023-01-30T04:00:27.105Z,-2.80
2023-01-30T04:02:57.176Z,-2.84
2023-01-30T04:05:26.017Z,-3.68
2023-01-30T04:08:01.013Z,-2.85
2023-01-30T04:10:29.427Z,-2.75
2023-01-30T04:12:57.825Z,-2.62
2023-01-30T04:15:26.251Z,-2.72
2023-01-30T04:18:23.240Z,-2.69
2023-01-30T04:20:55.315Z,-2.62
2023-01-30T04:23:32.429Z,-2.58
2023-01-30T04:26:00.642Z,-2.69
2023-01-30T04:28:29.111Z,-2.58
2023-01-30T04:30:58.435Z,-2.66
2023-01-30T04:33:55.715Z,-2.65
2023-01-30T04:36:23.982Z,-2.58
2023-01-30T04:38:53.875Z,-2.62
2023-01-30T04:41:23.310Z,-2.82
2023-01-30T04:43:53.313Z,-2.68
2023-01-30T04:46:28.828Z,-2.73
2023-01-30T04:48:58.016Z,-2.66
2023-01-30T04:51:26.969Z,-2.70
2023-01-30T04:53:56.605Z,-2.63
2023-01-30T04:56:24.804Z,-2.91
2023-01-30T04:58:54.311Z,-2.75
2023-01-30T05:01:27.480Z,-2.92
2023-01-30T05:03:58.055Z,-2.92
2023-01-30T05:06:27.058Z,-3.31
2023-01-30T05:08:58.131Z,-2.69
2023-01-30T05:11:28.663Z,-2.69
2023-01-30T05:13:57.415Z,-2.65
2023-01-30T05:16:26.909Z,-2.71
2023-01-30T05:18:55.099Z,-2.65
2023-01-30T05:21:27.919Z,-2.76
2023-01-30T05:23:58.640Z,-2.70
2023-01-30T05:26:27.049Z,-2.67
2023-01-30T05:28:57.755Z,-2.65
2023-01-30T05:31:26.251Z,-2.64
2023-01-30T05:33:54.983Z,-2.64
2023-01-30T05:36:25.124Z,-2.65
2023-01-30T05:38:53.405Z,-2.76
2023-01-30T05:41:23.026Z,-2.66
2023-01-30T05:43:52.028Z,-2.75
2023-01-30T05:46:20.573Z,-2.67
2023-01-30T05:48:49.045Z,-2.69
2023-01-30T05:51:19.614Z,-2.71
2023-01-30T05:53:48.670Z,-2.60
2023-01-30T05:56:17.190Z,-2.71
2023-01-30T05:58:52.173Z,-2.68
2023-01-30T06:01:21.097Z,-2.65
2023-01-30T06:03:49.943Z,-2.61
2023-01-30T06:06:18.808Z,-2.04
2023-01-30T06:08:47.235Z,-2.70
2023-01-30T06:11:17.369Z,-2.94
2023-01-30T06:13:47.285Z,-2.71
2023-01-30T06:16:18.236Z,-2.78
2023-01-30T06:18:47.977Z,-2.77
2023-01-30T06:21:17.287Z,-2.75
2023-01-30T06:23:46.429Z,-2.76
2023-01-30T06:26:14.770Z,-2.64
2023-01-30T06:28:43.153Z,-2.70
2023-01-30T06:31:12.824Z,-2.85
2023-01-30T06:33:41.036Z,-2.77
2023-01-30T06:36:14.147Z,-2.75
2023-01-30T06:38:42.408Z,-2.85
2023-01-30T06:41:10.649Z,-2.73
2023-01-30T06:43:38.927Z,-2.68
2023-01-30T06:46:07.269Z,-2.62
2023-01-30T06:48:36.855Z,-2.78
2023-01-30T06:51:05.407Z,-2.76
2023-01-30T06:53:33.699Z,-2.82
2023-01-30T06:56:03.693Z,-2.83
2023-01-30T06:58:32.311Z,-2.97
2023-01-30T07:01:02.089Z,-2.88
2023-01-30T07:03:30.515Z,-2.87
2023-01-30T07:06:00.060Z,-3.04
2023-01-30T07:08:28.516Z,-2.92
2023-01-30T07:10:56.726Z,-2.83
2023-01-30T07:13:24.974Z,-2.88
2023-01-30T07:15:53.214Z,-2.85
2023-01-30T07:18:21.407Z,-2.91
2023-01-30T07:20:50.483Z,-2.80
2023-01-30T07:23:20.083Z,-2.86
2023-01-30T07:25:48.325Z,-2.75
2023-01-30T07:28:16.548Z,-3.55
2023-01-30T07:30:44.816Z,-2.82
2023-01-30T07:33:13.309Z,-2.69
2023-01-30T07:35:41.493Z,-2.76
2023-01-30T07:38:09.676Z,-2.70
2023-01-30T07:40:39.290Z,-2.77
2023-01-30T07:43:11.074Z,-2.70
2023-01-30T07:45:42.887Z,-2.62
2023-01-30T07:48:13.768Z,-2.68
2023-01-30T07:50:42.199Z,-2.65
2023-01-30T07:53:12.771Z,-1.98
2023-01-30T07:55:42.792Z,-2.65
2023-01-30T07:58:14.864Z,-2.65
2023-01-30T08:00:43.132Z,-2.62
2023-01-30T08:03:14.365Z,-2.64
2023-01-30T08:05:42.654Z,-2.58
2023-01-30T08:08:10.858Z,-2.59
2023-01-30T08:10:39.037Z,-2.62
2023-01-30T08:13:08.757Z,-2.58
2023-01-30T08:15:36.998Z,-2.30
2023-01-30T08:18:07.245Z,-2.42
2023-01-30T08:20:35.814Z,-2.40
2023-01-30T08:23:04.453Z,-2.35
2023-01-30T08:25:32.759Z,-2.27
2023-01-30T08:28:01.266Z,-2.20
2023-01-30T08:30:31.795Z,-2.83
2023-01-30T08:33:00.457Z,-2.17
2023-01-30T08:35:28.718Z,-2.08
2023-01-30T08:37:56.944Z,-2.05
2023-01-30T08:40:25.188Z,-2.09
2023-01-30T08:42:53.383Z,-2.10
2023-01-30T08:45:21.629Z,-2.05
2023-01-30T08:47:51.180Z,-1.91
2023-01-30T08:50:20.154Z,-2.02
2023-01-30T08:52:48.580Z,-2.06
2023-01-30T08:55:18.058Z,-1.92
2023-01-30T08:57:46.691Z,-2.01
2023-01-30T09:00:17.080Z,-1.93
2023-01-30T09:02:47.080Z,-1.92
2023-01-30T09:05:16.948Z,-1.77
2023-01-30T09:07:47.221Z,-1.84
2023-01-30T09:10:15.479Z,-1.93
2023-01-30T09:12:44.216Z,-1.84
2023-01-30T09:15:13.430Z,-2.29
2023-01-30T09:17:41.700Z,-1.58
2023-01-30T09:20:12.911Z,-1.77
2023-01-30T09:22:42.571Z,-1.66
2023-01-30T09:25:11.207Z,-1.50
2023-01-30T09:27:39.570Z,-1.59
2023-01-30T09:30:10.291Z,-1.59
2023-01-30T09:32:38.548Z,-1.58
2023-01-30T09:35:08.509Z,-1.46
2023-01-30T09:37:36.769Z,-1.49
2023-01-30T09:40:08.512Z,-1.50
2023-01-30T09:43:07.869Z,-1.47
2023-01-30T09:45:45.628Z,-1.41
2023-01-30T09:48:22.411Z,-1.37
2023-01-30T09:51:36.023Z,-2.63
2023-01-30T09:54:22.030Z,-1.33
2023-01-30T09:57:02.886Z,-1.37
2023-01-30T09:59:41.560Z,-1.25
2023-01-30T10:02:36.894Z,-1.24
2023-01-30T10:05:06.541Z,-1.33
2023-01-30T10:07:53.421Z,-1.31
2023-01-30T10:10:38.991Z,-1.34
2023-01-30T10:13:32.717Z,-1.33
2023-01-30T10:16:10.613Z,-1.39
2023-01-30T10:19:34.725Z,-1.31
2023-01-30T10:22:21.068Z,-1.29
2023-01-30T10:25:02.906Z,-1.19
2023-01-30T10:27:33.859Z,-1.10
2023-01-30T10:30:07.878Z,-1.23
2023-01-30T10:32:44.162Z,-1.23
2023-01-30T10:35:19.700Z,-1.30
2023-01-30T10:37:57.659Z,-1.34
2023-01-30T10:40:31.063Z,-1.28
2023-01-30T10:43:09.709Z,-1.31
2023-01-30T10:45:47.865Z,-1.25
2023-01-30T10:48:46.751Z,-1.25
2023-01-30T10:51:26.306Z,-1.23
2023-01-30T10:54:02.315Z,-1.12
2023-01-30T10:56:41.147Z,-1.22
2023-01-30T10:59:24.323Z,-1.25
2023-01-30T11:02:02.706Z,-1.21
2023-01-30T11:05:17.743Z,-1.19
2023-01-30T11:07:49.038Z,-1.10
2023-01-30T11:10:19.787Z,-1.11
2023-01-30T11:12:48.121Z,-1.14
2023-01-30T11:15:16.860Z,-0.99
2023-01-30T11:17:46.851Z,-1.17
2023-01-30T11:20:19.256Z,-1.17
2023-01-30T11:22:50.468Z,-1.04
2023-01-30T11:25:22.058Z,-1.02
2023-01-30T11:27:57.071Z,-1.04
2023-01-30T11:30:30.276Z,-1.11
2023-01-30T11:33:14.168Z,-1.04
2023-01-30T11:35:54.703Z,-1.05
2023-01-30T11:38:25.583Z,-1.08
2023-01-30T11:41:18.305Z,-1.07
2023-01-30T11:43:47.325Z,-0.99
2023-01-30T11:46:19.539Z,-1.00
2023-01-30T11:49:04.369Z,-0.98
2023-01-30T11:51:48.047Z,-1.12
2023-01-30T11:54:20.791Z,-1.70
2023-01-30T11:56:54.043Z,-0.97
2023-01-30T11:59:29.063Z,-0.91
2023-01-30T12:02:06.866Z,-0.76
2023-01-30T12:04:36.650Z,-0.87
2023-01-30T12:07:19.016Z,-0.82
2023-01-30T12:09:50.307Z,-0.89
2023-01-30T12:12:34.277Z,-0.75
2023-01-30T12:15:19.570Z,-0.55
2023-01-30T12:17:57.309Z,-0.38
2023-01-30T12:20:43.136Z,-0.39
2023-01-30T12:23:18.338Z,-0.32
2023-01-30T12:25:58.442Z,-0.23
2023-01-30T12:28:36.353Z,-0.22
2023-01-30T12:31:10.541Z,-0.25
2023-01-30T12:33:38.855Z,-0.17
2023-01-30T12:36:26.066Z,-0.27
2023-01-30T12:39:26.222Z,-0.06
2023-01-30T12:45:04.898Z,-0.03
2023-01-30T12:47:55.173Z,-0.04
2023-01-30T12:50:38.970Z,-0.02
2023-01-30T12:53:44.383Z,-0.02
2023-01-30T12:56:46.367Z,-0.01
2023-01-30T12:59:23.824Z,-0.06
2023-01-30T13:02:14.070Z,0.00
2023-01-30T13:05:01.633Z,-0.04
2023-01-30T13:07:40.340Z,0.05
2023-01-30T13:10:21.085Z,0.05
2023-01-30T13:13:06.161Z,0.05
2023-01-30T13:15:45.965Z,0.03
2023-01-30T13:18:19.613Z,0.00
2023-01-30T13:21:02.500Z,0.05
2023-01-30T13:23:45.621Z,0.00
2023-01-30T13:26:20.171Z,0.08
2023-01-30T13:28:51.329Z,0.00
2023-01-30T13:31:22.918Z,0.10
2023-01-30T13:33:53.767Z,0.07
2023-01-30T13:36:25.597Z,0.17
2023-01-30T13:39:02.501Z,0.08
2023-01-30T13:41:40.679Z,0.10
2023-01-30T13:44:19.785Z,0.10
2023-01-30T13:46:49.451Z,0.14
2023-01-30T13:49:25.002Z,0.09
2023-01-30T13:51:59.317Z,0.07
2023-01-30T13:54:48.736Z,0.13
2023-01-30T13:57:31.936Z,0.00
2023-01-30T14:00:33.240Z,0.05
2023-01-30T14:03:31.439Z,-0.92
2023-01-30T14:06:35.533Z,0.05
2023-01-30T14:09:19.243Z,-0.03
2023-01-30T14:11:58.586Z,0.01
2023-01-30T14:14:36.654Z,0.03
2023-01-30T14:17:17.179Z,0.11
2023-01-30T14:19:58.298Z,0.16
2023-01-30T14:22:41.153Z,0.12
2023-01-30T14:25:47.160Z,0.22
2023-01-30T14:28:52.212Z,0.18
2023-01-30T14:31:55.224Z,0.12
2023-01-30T14:34:49.372Z,0.08
2023-01-30T14:37:46.916Z,0.30
2023-01-30T14:40:46.865Z,-0.55
2023-01-30T14:43:53.236Z,0.28
2023-01-30T14:46:55.018Z,0.30
2023-01-30T14:49:32.602Z,0.36
2023-01-30T14:52:02.102Z,0.37
2023-01-30T14:54:42.285Z,0.37
2023-01-30T14:57:24.684Z,-0.06
2023-01-30T15:00:18.134Z,0.01
2023-01-30T15:02:52.580Z,0.19
2023-01-30T15:05:31.857Z,0.33
2023-01-30T15:08:11.577Z,0.37
2023-01-30T15:11:13.633Z,0.44
2023-01-30T15:13:56.056Z,0.36
2023-01-30T15:17:02.076Z,0.36
2023-01-30T15:20:07.295Z,0.27
2023-01-30T15:22:50.764Z,0.48
2023-01-30T15:25:31.773Z,0.44
2023-01-30T15:28:11.905Z,0.53
2023-01-30T15:30:58.408Z,0.49
2023-01-30T15:33:31.919Z,0.48
2023-01-30T15:36:00.806Z,0.54
2023-01-30T15:38:34.298Z,0.42
2023-01-30T15:41:04.703Z,0.59
2023-01-30T15:43:59.883Z,0.51
2023-01-30T15:46:41.322Z,0.41
2023-01-30T15:49:49.533Z,0.40
2023-01-30T15:52:21.235Z,0.43
2023-01-30T15:54:52.859Z,0.34
2023-01-30T15:57:29.393Z,0.55
2023-01-30T15:59:59.106Z,0.25
2023-01-30T16:02:32.586Z,0.44
2023-01-30T16:05:19.151Z,0.52
2023-01-30T16:07:50.161Z,0.44
2023-01-30T16:10:22.748Z,-0.31
2023-01-30T16:12:54.663Z,0.41
2023-01-30T16:15:29.721Z,0.35
2023-01-30T16:18:05.671Z,0.63
2023-01-30T16:20:59.200Z,0.43
2023-01-30T16:23:35.130Z,0.38
2023-01-30T16:26:06.752Z,0.46
2023-01-30T16:28:35.197Z,0.47
2023-01-30T16:31:06.876Z,0.37
2023-01-30T16:33:37.100Z,0.44
2023-01-30T16:36:07.979Z,-0.32
2023-01-30T16:38:45.449Z,0.50
2023-01-30T16:41:36.163Z,0.47
2023-01-30T16:44:20.356Z,0.51
2023-01-30T16:46:53.007Z,0.39
2023-01-30T16:49:33.983Z,0.46
2023-01-30T16:52:06.063Z,0.46
2023-01-30T16:54:36.253Z,0.16
2023-01-30T16:57:06.323Z,0.40
2023-01-30T16:59:36.402Z,0.40
2023-01-30T17:02:08.599Z,0.31
2023-01-30T17:04:41.268Z,0.46
2023-01-30T17:07:34.987Z,0.40
2023-01-30T17:10:03.300Z,0.37
2023-01-30T17:12:44.504Z,0.25
2023-01-30T17:15:36.805Z,0.31
2023-01-30T17:18:07.704Z,0.32
2023-01-30T17:20:45.469Z,-0.40
2023-01-30T17:23:20.065Z,0.40
2023-01-30T17:25:49.951Z,-0.12
2023-01-30T17:28:24.071Z,0.26
2023-01-30T17:30:52.449Z,0.19
2023-01-30T17:33:20.838Z,0.16
2023-01-30T17:35:49.074Z,0.36
2023-01-30T17:38:17.321Z,0.20
2023-01-30T17:40:46.126Z,0.27
2023-01-30T17:43:15.772Z,0.29
2023-01-30T17:45:45.414Z,0.24
2023-01-30T17:48:14.171Z,0.29
2023-01-30T17:50:42.551Z,0.45
2023-01-30T17:53:10.916Z,0.32
2023-01-30T17:55:39.535Z,0.38
2023-01-30T17:58:07.781Z,0.41
2023-01-30T18:00:36.011Z,0.51
2023-01-30T18:03:05.649Z,0.44
2023-01-30T18:05:34.376Z,0.50
2023-01-30T18:08:02.566Z,0.40
2023-01-30T18:10:30.882Z,0.44
2023-01-30T18:12:59.125Z,0.63
2023-01-30T18:15:28.112Z,0.60
2023-01-30T18:17:56.862Z,0.66
2023-01-30T18:20:26.560Z,0.62
2023-01-30T18:22:54.779Z,0.65
2023-01-30T18:25:23.334Z,0.67
2023-01-30T18:27:51.593Z,0.63
2023-01-30T18:30:20.527Z,0.63
2023-01-30T18:32:52.984Z,0.61
2023-01-30T18:35:23.209Z,0.57
2023-01-30T18:37:53.145Z,0.65
2023-01-30T18:40:22.567Z,0.60
2023-01-30T18:42:51.002Z,0.72
2023-01-30T18:45:19.249Z,0.68
2023-01-30T18:47:47.437Z,0.69
2023-01-30T18:50:18.089Z,0.75
2023-01-30T18:52:48.453Z,0.67
2023-01-30T18:55:18.660Z,0.65
2023-01-30T18:57:46.868Z,0.66
2023-01-30T19:00:17.553Z,0.68
2023-01-30T19:02:45.965Z,0.28
2023-01-30T19:05:14.185Z,0.62
2023-01-30T19:07:42.821Z,0.72
2023-01-30T19:10:17.335Z,0.61
2023-01-30T19:13:05.302Z,0.63
2023-01-30T19:15:36.958Z,0.65
2023-01-30T19:18:05.688Z,0.51
2023-01-30T19:20:34.489Z,0.73
2023-01-30T19:23:02.690Z,0.64
2023-01-30T19:25:30.931Z,0.76
2023-01-30T19:28:00.563Z,0.71
2023-01-30T19:30:29.410Z,0.70
2023-01-30T19:32:59.176Z,0.75
2023-01-30T19:35:27.505Z,0.63
2023-01-30T19:38:00.237Z,0.71
2023-01-30T19:40:28.849Z,0.62
2023-01-30T19:43:09.262Z,0.66
2023-01-30T19:45:40.645Z,0.74
2023-01-30T19:48:10.565Z,1.06
2023-01-30T19:50:39.183Z,0.67
2023-01-30T19:53:08.068Z,0.61
2023-01-30T19:55:36.707Z,0.67
2023-01-30T19:58:04.936Z,0.63
2023-01-30T20:00:33.270Z,0.72
2023-01-30T20:03:03.028Z,0.59
2023-01-30T20:05:31.283Z,0.76
2023-01-30T20:07:59.481Z,0.67
2023-01-30T20:10:27.822Z,0.69
2023-01-30T20:12:56.015Z,0.78
2023-01-30T20:15:24.228Z,0.75
2023-01-30T20:17:52.471Z,0.74
2023-01-30T20:20:22.485Z,0.71
2023-01-30T20:22:50.673Z,0.63
2023-01-30T20:25:18.881Z,0.71
2023-01-30T20:27:47.110Z,0.77
2023-01-30T20:30:16.316Z,0.72
2023-01-30T20:32:44.580Z,0.78
2023-01-30T20:35:13.567Z,0.71
2023-01-30T20:37:43.128Z,0.76
2023-01-30T20:40:14.237Z,0.72
2023-01-30T20:42:42.412Z,0.85
2023-01-30T20:45:11.882Z,0.68
2023-01-30T20:47:40.583Z,0.72
2023-01-30T20:50:13.755Z,0.92
2023-01-30T20:52:43.709Z,0.67
2023-01-30T20:55:11.976Z,0.89
2023-01-30T20:57:43.682Z,0.67
2023-01-30T21:00:14.788Z,0.74
2023-01-30T21:02:45.559Z,0.81
2023-01-30T21:05:38.684Z,0.69
2023-01-30T21:08:08.280Z,0.79
2023-01-30T21:10:37.117Z,0.74
2023-01-30T21:13:05.685Z,0.91
2023-01-30T21:15:34.306Z,0.83
2023-01-30T21:18:02.507Z,0.73
2023-01-30T21:20:30.842Z,0.73
2023-01-30T21:22:59.594Z,0.79
2023-01-30T21:25:29.412Z,0.79
2023-01-30T21:27:57.652Z,0.80
2023-01-30T21:30:26.309Z,0.66
2023-01-30T21:32:54.630Z,0.81
2023-01-30T21:35:22.871Z,0.89
2023-01-30T21:38:08.735Z,0.68
2023-01-30T21:40:55.967Z,0.70
2023-01-30T21:43:24.266Z,0.68
2023-01-30T21:45:59.330Z,0.72
2023-01-30T21:48:27.606Z,0.81
2023-01-30T21:50:56.289Z,0.80
2023-01-30T21:53:24.659Z,0.77
2023-01-30T21:55:54.723Z,0.78
2023-01-30T21:58:22.924Z,0.84
2023-01-30T22:00:51.130Z,0.74
2023-01-30T22:03:19.376Z,0.83
2023-01-30T22:05:47.650Z,0.79
2023-01-30T22:08:16.528Z,0.78
2023-01-30T22:10:44.740Z,0.80
2023-01-30T22:13:14.270Z,0.89
2023-01-30T22:15:43.360Z,0.75
2023-01-30T22:18:11.599Z,0.73
2023-01-30T22:20:39.823Z,0.96
2023-01-30T22:23:08.010Z,0.85
2023-01-30T22:25:36.592Z,0.84
2023-01-30T22:28:05.150Z,0.88
2023-01-30T22:30:34.733Z,0.78
2023-01-30T22:33:02.880Z,0.72
2023-01-30T22:35:31.123Z,0.86
2023-01-30T22:37:59.335Z,0.69
2023-01-30T22:40:27.553Z,0.71
2023-01-30T22:43:00.865Z,0.82
2023-01-30T22:45:29.078Z,0.77
2023-01-30T22:47:58.638Z,0.79
2023-01-30T22:50:27.128Z,0.75
2023-01-30T22:52:55.998Z,0.81
2023-01-30T22:55:24.327Z,0.78
2023-01-30T22:57:52.551Z,0.77
2023-01-30T23:00:21.171Z,0.61
2023-01-30T23:02:49.391Z,0.74
2023-01-30T23:05:31.944Z,0.82
2023-01-30T23:08:00.630Z,0.71
2023-01-30T23:10:28.863Z,-0.81
2023-01-30T23:13:09.319Z,0.68
2023-01-30T23:15:42.721Z,0.59
2023-01-30T23:18:28.836Z,0.61
2023-01-30T23:20:58.471Z,0.67
2023-01-30T23:23:27.003Z,0.56
2023-01-30T23:25:55.196Z,0.60
2023-01-30T23:28:23.295Z,0.72
2023-01-30T23:30:51.515Z,0.66
2023-01-30T23:33:19.673Z,0.65
2023-01-30T23:35:47.883Z,0.71
2023-01-30T23:38:19.091Z,0.68
2023-01-30T23:40:48.847Z,0.71
2023-01-30T23:43:17.612Z,0.70
2023-01-30T23:45:45.929Z,0.65
2023-01-30T23:48:14.129Z,0.66
2023-01-30T23:50:42.755Z,0.70
2023-01-30T23:53:11.383Z,0.70
2023-01-30T23:55:41.271Z,0.60
2023-01-30T23:58:09.459Z,0.63
